sensor_id;sensor_type;location;lat;lon;timestamp;P1;durP1;ratioP1;P2;durP2;ratioP2
57297;SDS011;43147;50.972;18.210;2022-10-31T00:02:22;82.70;;;40.00;;
57297;SDS011;43147;50.972;18.210;2022-10-31T00:04:47;77.80;;;37.10;;
57297;SDS011;43147;50.972;18.210;2022-10-31T00:07:13;82.70;;;39.20;;
57297;SDS011;43147;50.972;18.210;2022-10-31T00:09:38;79.20;;;39.20;;
57297;SDS011;43147;50.972;18.210;2022-10-31T00:12:04;74.40;;;37.20;;
57297;SDS011;43147;50.972;18.210;2022-10-31T00:14:30;74.30;;;39.00;;
57297;SDS011;43147;50.972;18.210;2022-10-31T00:16:55;69.40;;;35.90;;
57297;SDS011;43147;50.972;18.210;2022-10-31T00:19:21;72.20;;;39.60;;
57297;SDS011;43147;50.972;18.210;2022-10-31T00:21:46;62.90;;;36.30;;
57297;SDS011;43147;50.972;18.210;2022-10-31T00:24:12;81.10;;;37.30;;
57297;SDS011;43147;50.972;18.210;2022-10-31T00:26:39;73.50;;;38.10;;
57297;SDS011;43147;50.972;18.210;2022-10-31T00:29:04;80.70;;;35.90;;
57297;SDS011;43147;50.972;18.210;2022-10-31T00:31:30;70.30;;;36.80;;
57297;SDS011;43147;50.972;18.210;2022-10-31T00:33:56;76.40;;;37.20;;
57297;SDS011;43147;50.972;18.210;2022-10-31T00:36:22;69.20;;;35.90;;
57297;SDS011;43147;50.972;18.210;2022-10-31T00:38:47;67.90;;;34.00;;
57297;SDS011;43147;50.972;18.210;2022-10-31T00:41:14;66.10;;;36.10;;
57297;SDS011;43147;50.972;18.210;2022-10-31T00:43:42;66.70;;;36.60;;
57297;SDS011;43147;50.972;18.210;2022-10-31T00:46:08;68.20;;;34.10;;
57297;SDS011;43147;50.972;18.210;2022-10-31T00:48:34;65.90;;;33.80;;
57297;SDS011;43147;50.972;18.210;2022-10-31T00:51:00;69.70;;;36.90;;
57297;SDS011;43147;50.972;18.210;2022-10-31T00:53:28;73.40;;;36.50;;
57297;SDS011;43147;50.972;18.210;2022-10-31T00:55:53;71.60;;;35.90;;
57297;SDS011;43147;50.972;18.210;2022-10-31T00:58:19;71.40;;;34.60;;
57297;SDS011;43147;50.972;18.210;2022-10-31T01:00:46;64.90;;;34.60;;
57297;SDS011;43147;50.972;18.210;2022-10-31T01:03:16;71.10;;;34.70;;
57297;SDS011;43147;50.972;18.210;2022-10-31T01:05:41;65.00;;;36.40;;
57297;SDS011;43147;50.972;18.210;2022-10-31T01:08:07;79.60;;;35.30;;
57297;SDS011;43147;50.972;18.210;2022-10-31T01:10:32;67.30;;;35.70;;
57297;SDS011;43147;50.972;18.210;2022-10-31T01:12:58;62.30;;;33.10;;
57297;SDS011;43147;50.972;18.210;2022-10-31T01:15:24;67.30;;;34.70;;
57297;SDS011;43147;50.972;18.210;2022-10-31T01:17:49;61.70;;;34.50;;
57297;SDS011;43147;50.972;18.210;2022-10-31T01:20:17;66.20;;;37.10;;
57297;SDS011;43147;50.972;18.210;2022-10-31T01:22:43;63.30;;;34.80;;
57297;SDS011;43147;50.972;18.210;2022-10-31T01:25:11;81.60;;;37.30;;
57297;SDS011;43147;50.972;18.210;2022-10-31T01:27:37;74.90;;;38.30;;
57297;SDS011;43147;50.972;18.210;2022-10-31T01:30:03;69.20;;;38.70;;
57297;SDS011;43147;50.972;18.210;2022-10-31T01:32:29;70.80;;;37.70;;
57297;SDS011;43147;50.972;18.210;2022-10-31T01:34:55;76.70;;;36.90;;
57297;SDS011;43147;50.972;18.210;2022-10-31T01:37:20;61.60;;;34.20;;
57297;SDS011;43147;50.972;18.210;2022-10-31T01:39:47;61.90;;;35.70;;
57297;SDS011;43147;50.972;18.210;2022-10-31T01:42:18;68.20;;;33.30;;
57297;SDS011;43147;50.972;18.210;2022-10-31T01:44:48;60.40;;;33.50;;
57297;SDS011;43147;50.972;18.210;2022-10-31T01:47:17;61.20;;;33.90;;
57297;SDS011;43147;50.972;18.210;2022-10-31T01:49:47;67.90;;;33.40;;
57297;SDS011;43147;50.972;18.210;2022-10-31T01:52:23;67.70;;;33.20;;
57297;SDS011;43147;50.972;18.210;2022-10-31T01:54:51;68.00;;;35.70;;
57297;SDS011;43147;50.972;18.210;2022-10-31T01:57:21;72.00;;;35.80;;
57297;SDS011;43147;50.972;18.210;2022-10-31T01:59:48;72.70;;;35.50;;
57297;SDS011;43147;50.972;18.210;2022-10-31T02:02:18;64.20;;;34.20;;
57297;SDS011;43147;50.972;18.210;2022-10-31T02:04:44;69.20;;;36.50;;
57297;SDS011;43147;50.972;18.210;2022-10-31T02:07:12;68.00;;;35.10;;
57297;SDS011;43147;50.972;18.210;2022-10-31T02:09:39;61.50;;;32.60;;
57297;SDS011;43147;50.972;18.210;2022-10-31T02:12:06;61.00;;;33.90;;
57297;SDS011;43147;50.972;18.210;2022-10-31T02:14:34;62.00;;;33.50;;
57297;SDS011;43147;50.972;18.210;2022-10-31T02:17:00;69.90;;;33.30;;
57297;SDS011;43147;50.972;18.210;2022-10-31T02:22:20;58.00;;;32.40;;
57297;SDS011;43147;50.972;18.210;2022-10-31T02:32:46;62.90;;;34.30;;
57297;SDS011;43147;50.972;18.210;2022-10-31T02:37:56;60.90;;;33.90;;
57297;SDS011;43147;50.972;18.210;2022-10-31T02:41:06;61.70;;;30.30;;
57297;SDS011;43147;50.972;18.210;2022-10-31T02:49:02;63.70;;;31.20;;
57297;SDS011;43147;50.972;18.210;2022-10-31T02:51:31;54.70;;;31.80;;
57297;SDS011;43147;50.972;18.210;2022-10-31T02:53:56;64.80;;;31.60;;
57297;SDS011;43147;50.972;18.210;2022-10-31T02:56:22;62.10;;;31.40;;
57297;SDS011;43147;50.972;18.210;2022-10-31T02:58:55;59.00;;;32.10;;
57297;SDS011;43147;50.972;18.210;2022-10-31T03:10:02;61.00;;;30.50;;
57297;SDS011;43147;50.972;18.210;2022-10-31T03:12:50;71.00;;;32.60;;
57297;SDS011;43147;50.972;18.210;2022-10-31T03:15:39;58.20;;;30.50;;
57297;SDS011;43147;50.972;18.210;2022-10-31T03:18:09;57.70;;;28.70;;
57297;SDS011;43147;50.972;18.210;2022-10-31T03:20:41;60.60;;;30.70;;
57297;SDS011;43147;50.972;18.210;2022-10-31T03:23:12;54.10;;;29.70;;
57297;SDS011;43147;50.972;18.210;2022-10-31T03:25:39;59.10;;;29.60;;
57297;SDS011;43147;50.972;18.210;2022-10-31T03:28:06;59.50;;;31.20;;
57297;SDS011;43147;50.972;18.210;2022-10-31T03:30:33;52.50;;;28.70;;
57297;SDS011;43147;50.972;18.210;2022-10-31T03:33:04;55.10;;;27.70;;
57297;SDS011;43147;50.972;18.210;2022-10-31T03:35:34;58.20;;;28.70;;
57297;SDS011;43147;50.972;18.210;2022-10-31T03:38:00;59.70;;;31.70;;
57297;SDS011;43147;50.972;18.210;2022-10-31T03:40:27;60.60;;;30.80;;
57297;SDS011;43147;50.972;18.210;2022-10-31T03:42:54;53.20;;;30.70;;
57297;SDS011;43147;50.972;18.210;2022-10-31T03:45:24;64.00;;;31.10;;
57297;SDS011;43147;50.972;18.210;2022-10-31T03:47:51;57.00;;;30.30;;
57297;SDS011;43147;50.972;18.210;2022-10-31T03:50:17;56.80;;;29.40;;
57297;SDS011;43147;50.972;18.210;2022-10-31T03:52:45;57.70;;;30.10;;
57297;SDS011;43147;50.972;18.210;2022-10-31T03:55:17;61.40;;;30.10;;
57297;SDS011;43147;50.972;18.210;2022-10-31T03:57:47;68.00;;;33.80;;
57297;SDS011;43147;50.972;18.210;2022-10-31T04:00:31;53.80;;;29.20;;
57297;SDS011;43147;50.972;18.210;2022-10-31T04:03:07;60.40;;;33.20;;
57297;SDS011;43147;50.972;18.210;2022-10-31T04:05:36;51.50;;;28.80;;
57297;SDS011;43147;50.972;18.210;2022-10-31T04:08:03;63.00;;;29.50;;
57297;SDS011;43147;50.972;18.210;2022-10-31T04:10:30;70.00;;;33.80;;
57297;SDS011;43147;50.972;18.210;2022-10-31T04:12:58;61.90;;;31.80;;
57297;SDS011;43147;50.972;18.210;2022-10-31T04:15:27;62.70;;;32.10;;
57297;SDS011;43147;50.972;18.210;2022-10-31T04:17:56;68.10;;;33.90;;
57297;SDS011;43147;50.972;18.210;2022-10-31T04:20:33;48.90;;;27.40;;
57297;SDS011;43147;50.972;18.210;2022-10-31T04:23:00;58.70;;;29.90;;
57297;SDS011;43147;50.972;18.210;2022-10-31T04:25:26;60.30;;;28.00;;
57297;SDS011;43147;50.972;18.210;2022-10-31T04:27:51;62.90;;;30.60;;
57297;SDS011;43147;50.972;18.210;2022-10-31T04:30:17;64.00;;;32.00;;
57297;SDS011;43147;50.972;18.210;2022-10-31T04:32:42;58.60;;;29.50;;
57297;SDS011;43147;50.972;18.210;2022-10-31T04:35:08;60.50;;;32.10;;
57297;SDS011;43147;50.972;18.210;2022-10-31T04:37:33;64.30;;;31.70;;
57297;SDS011;43147;50.972;18.210;2022-10-31T04:40:01;59.30;;;29.00;;
57297;SDS011;43147;50.972;18.210;2022-10-31T04:42:29;58.10;;;31.80;;
57297;SDS011;43147;50.972;18.210;2022-10-31T04:44:55;56.60;;;30.10;;
57297;SDS011;43147;50.972;18.210;2022-10-31T04:47:21;66.40;;;33.00;;
57297;SDS011;43147;50.972;18.210;2022-10-31T04:49:47;68.10;;;33.20;;
57297;SDS011;43147;50.972;18.210;2022-10-31T04:52:12;64.70;;;33.60;;
57297;SDS011;43147;50.972;18.210;2022-10-31T04:54:38;66.70;;;33.20;;
57297;SDS011;43147;50.972;18.210;2022-10-31T04:57:04;64.40;;;30.80;;
57297;SDS011;43147;50.972;18.210;2022-10-31T04:59:30;61.80;;;33.60;;
57297;SDS011;43147;50.972;18.210;2022-10-31T05:01:55;61.80;;;33.60;;
57297;SDS011;43147;50.972;18.210;2022-10-31T05:04:21;72.40;;;33.50;;
57297;SDS011;43147;50.972;18.210;2022-10-31T05:06:46;65.70;;;34.30;;
57297;SDS011;43147;50.972;18.210;2022-10-31T05:09:12;44.40;;;47.90;;
57297;SDS011;43147;50.972;18.210;2022-10-31T05:11:38;70.60;;;33.80;;
57297;SDS011;43147;50.972;18.210;2022-10-31T05:14:03;62.70;;;33.90;;
57297;SDS011;43147;50.972;18.210;2022-10-31T05:16:29;68.90;;;32.70;;
57297;SDS011;43147;50.972;18.210;2022-10-31T05:18:54;61.00;;;31.90;;
57297;SDS011;43147;50.972;18.210;2022-10-31T05:21:19;67.00;;;34.30;;
57297;SDS011;43147;50.972;18.210;2022-10-31T05:23:45;59.00;;;30.50;;
57297;SDS011;43147;50.972;18.210;2022-10-31T05:26:10;59.90;;;31.60;;
57297;SDS011;43147;50.972;18.210;2022-10-31T05:28:36;71.40;;;32.80;;
57297;SDS011;43147;50.972;18.210;2022-10-31T05:31:02;61.50;;;29.40;;
57297;SDS011;43147;50.972;18.210;2022-10-31T05:33:27;68.00;;;31.60;;
57297;SDS011;43147;50.972;18.210;2022-10-31T05:35:53;68.10;;;35.40;;
57297;SDS011;43147;50.972;18.210;2022-10-31T05:38:18;61.00;;;31.70;;
57297;SDS011;43147;50.972;18.210;2022-10-31T05:40:44;68.50;;;33.80;;
57297;SDS011;43147;50.972;18.210;2022-10-31T05:43:09;66.20;;;32.00;;
57297;SDS011;43147;50.972;18.210;2022-10-31T05:45:34;63.80;;;30.50;;
57297;SDS011;43147;50.972;18.210;2022-10-31T05:48:01;66.40;;;34.30;;
57297;SDS011;43147;50.972;18.210;2022-10-31T05:50:28;66.00;;;32.90;;
57297;SDS011;43147;50.972;18.210;2022-10-31T05:52:57;64.40;;;32.40;;
57297;SDS011;43147;50.972;18.210;2022-10-31T05:55:24;70.00;;;33.60;;
57297;SDS011;43147;50.972;18.210;2022-10-31T05:57:51;58.90;;;30.30;;
57297;SDS011;43147;50.972;18.210;2022-10-31T06:00:17;56.10;;;32.20;;
57297;SDS011;43147;50.972;18.210;2022-10-31T06:02:43;60.30;;;29.50;;
57297;SDS011;43147;50.972;18.210;2022-10-31T06:05:09;68.40;;;33.10;;
57297;SDS011;43147;50.972;18.210;2022-10-31T06:07:34;69.30;;;35.00;;
57297;SDS011;43147;50.972;18.210;2022-10-31T06:10:00;74.50;;;37.80;;
57297;SDS011;43147;50.972;18.210;2022-10-31T06:12:26;65.40;;;36.20;;
57297;SDS011;43147;50.972;18.210;2022-10-31T06:14:52;70.40;;;34.60;;
57297;SDS011;43147;50.972;18.210;2022-10-31T06:17:19;68.80;;;37.90;;
57297;SDS011;43147;50.972;18.210;2022-10-31T06:19:44;70.10;;;39.70;;
57297;SDS011;43147;50.972;18.210;2022-10-31T06:22:09;70.10;;;37.60;;
57297;SDS011;43147;50.972;18.210;2022-10-31T06:24:37;60.90;;;34.70;;
57297;SDS011;43147;50.972;18.210;2022-10-31T06:27:03;70.20;;;35.30;;
57297;SDS011;43147;50.972;18.210;2022-10-31T06:29:29;65.20;;;32.90;;
57297;SDS011;43147;50.972;18.210;2022-10-31T06:31:54;58.70;;;32.70;;
57297;SDS011;43147;50.972;18.210;2022-10-31T06:34:20;60.80;;;33.90;;
57297;SDS011;43147;50.972;18.210;2022-10-31T06:36:46;65.10;;;34.20;;
57297;SDS011;43147;50.972;18.210;2022-10-31T06:39:12;57.50;;;32.80;;
57297;SDS011;43147;50.972;18.210;2022-10-31T06:41:37;64.20;;;39.70;;
57297;SDS011;43147;50.972;18.210;2022-10-31T06:44:05;59.30;;;33.20;;
57297;SDS011;43147;50.972;18.210;2022-10-31T06:46:31;64.00;;;37.70;;
57297;SDS011;43147;50.972;18.210;2022-10-31T06:48:57;58.70;;;35.30;;
57297;SDS011;43147;50.972;18.210;2022-10-31T06:51:22;56.30;;;34.90;;
57297;SDS011;43147;50.972;18.210;2022-10-31T06:53:48;49.70;;;34.70;;
57297;SDS011;43147;50.972;18.210;2022-10-31T06:56:13;53.80;;;36.80;;
57297;SDS011;43147;50.972;18.210;2022-10-31T06:58:39;62.60;;;40.60;;
57297;SDS011;43147;50.972;18.210;2022-10-31T07:01:05;60.20;;;38.00;;
57297;SDS011;43147;50.972;18.210;2022-10-31T07:03:30;60.70;;;36.50;;
57297;SDS011;43147;50.972;18.210;2022-10-31T07:05:56;63.70;;;35.40;;
57297;SDS011;43147;50.972;18.210;2022-10-31T07:08:22;54.70;;;33.30;;
57297;SDS011;43147;50.972;18.210;2022-10-31T07:10:51;46.50;;;28.30;;
57297;SDS011;43147;50.972;18.210;2022-10-31T07:13:19;44.20;;;26.80;;
57297;SDS011;43147;50.972;18.210;2022-10-31T07:15:50;44.10;;;26.80;;
57297;SDS011;43147;50.972;18.210;2022-10-31T07:18:15;48.10;;;27.80;;
57297;SDS011;43147;50.972;18.210;2022-10-31T07:20:41;42.20;;;27.30;;
57297;SDS011;43147;50.972;18.210;2022-10-31T07:23:09;45.70;;;27.80;;
57297;SDS011;43147;50.972;18.210;2022-10-31T07:25:36;38.70;;;25.40;;
57297;SDS011;43147;50.972;18.210;2022-10-31T07:28:02;41.00;;;26.00;;
57297;SDS011;43147;50.972;18.210;2022-10-31T07:30:28;36.70;;;24.40;;
57297;SDS011;43147;50.972;18.210;2022-10-31T07:32:53;45.60;;;25.60;;
57297;SDS011;43147;50.972;18.210;2022-10-31T07:35:20;41.60;;;25.00;;
57297;SDS011;43147;50.972;18.210;2022-10-31T07:37:47;37.80;;;22.70;;
57297;SDS011;43147;50.972;18.210;2022-10-31T07:40:13;40.70;;;24.30;;
57297;SDS011;43147;50.972;18.210;2022-10-31T07:42:39;36.60;;;23.90;;
57297;SDS011;43147;50.972;18.210;2022-10-31T07:45:07;38.60;;;25.00;;
57297;SDS011;43147;50.972;18.210;2022-10-31T07:50:06;34.10;;;23.00;;
57297;SDS011;43147;50.972;18.210;2022-10-31T07:52:33;41.90;;;26.00;;
57297;SDS011;43147;50.972;18.210;2022-10-31T07:54:59;37.40;;;24.00;;
57297;SDS011;43147;50.972;18.210;2022-10-31T07:57:24;37.30;;;24.20;;
57297;SDS011;43147;50.972;18.210;2022-10-31T07:59:50;33.10;;;24.00;;
57297;SDS011;43147;50.972;18.210;2022-10-31T08:02:15;32.90;;;22.40;;
57297;SDS011;43147;50.972;18.210;2022-10-31T08:04:41;37.20;;;24.40;;
57297;SDS011;43147;50.972;18.210;2022-10-31T08:07:07;37.80;;;24.00;;
57297;SDS011;43147;50.972;18.210;2022-10-31T08:09:34;36.50;;;24.50;;
57297;SDS011;43147;50.972;18.210;2022-10-31T08:11:59;35.40;;;23.10;;
57297;SDS011;43147;50.972;18.210;2022-10-31T08:14:26;38.20;;;22.50;;
57297;SDS011;43147;50.972;18.210;2022-10-31T08:16:52;35.80;;;23.00;;
57297;SDS011;43147;50.972;18.210;2022-10-31T08:19:18;38.30;;;22.60;;
57297;SDS011;43147;50.972;18.210;2022-10-31T08:21:44;34.30;;;22.10;;
57297;SDS011;43147;50.972;18.210;2022-10-31T08:24:09;38.40;;;21.70;;
57297;SDS011;43147;50.972;18.210;2022-10-31T08:26:35;32.80;;;21.40;;
57297;SDS011;43147;50.972;18.210;2022-10-31T08:29:00;33.80;;;21.80;;
57297;SDS011;43147;50.972;18.210;2022-10-31T08:31:27;36.40;;;21.70;;
57297;SDS011;43147;50.972;18.210;2022-10-31T08:33:56;35.90;;;21.30;;
57297;SDS011;43147;50.972;18.210;2022-10-31T08:36:22;33.70;;;20.00;;
57297;SDS011;43147;50.972;18.210;2022-10-31T08:38:47;29.20;;;18.50;;
57297;SDS011;43147;50.972;18.210;2022-10-31T08:41:13;32.30;;;18.30;;
57297;SDS011;43147;50.972;18.210;2022-10-31T08:43:39;36.80;;;18.70;;
57297;SDS011;43147;50.972;18.210;2022-10-31T08:46:05;39.10;;;20.50;;
57297;SDS011;43147;50.972;18.210;2022-10-31T08:48:30;31.30;;;20.30;;
57297;SDS011;43147;50.972;18.210;2022-10-31T08:50:57;28.30;;;18.10;;
57297;SDS011;43147;50.972;18.210;2022-10-31T08:53:24;30.70;;;17.10;;
57297;SDS011;43147;50.972;18.210;2022-10-31T08:55:50;31.80;;;18.10;;
57297;SDS011;43147;50.972;18.210;2022-10-31T08:58:16;33.10;;;17.00;;
57297;SDS011;43147;50.972;18.210;2022-10-31T09:00:45;33.70;;;14.20;;
57297;SDS011;43147;50.972;18.210;2022-10-31T09:03:13;22.30;;;14.20;;
57297;SDS011;43147;50.972;18.210;2022-10-31T09:05:49;17.90;;;13.30;;
57297;SDS011;43147;50.972;18.210;2022-10-31T09:08:15;17.90;;;12.50;;
57297;SDS011;43147;50.972;18.210;2022-10-31T09:10:41;23.00;;;12.50;;
57297;SDS011;43147;50.972;18.210;2022-10-31T09:13:11;24.50;;;12.40;;
57297;SDS011;43147;50.972;18.210;2022-10-31T09:15:39;24.00;;;11.60;;
57297;SDS011;43147;50.972;18.210;2022-10-31T09:18:06;22.70;;;10.90;;
57297;SDS011;43147;50.972;18.210;2022-10-31T09:20:32;18.30;;;10.20;;
57297;SDS011;43147;50.972;18.210;2022-10-31T09:23:04;18.90;;;10.10;;
57297;SDS011;43147;50.972;18.210;2022-10-31T09:25:32;20.70;;;10.00;;
57297;SDS011;43147;50.972;18.210;2022-10-31T09:27:58;20.20;;;9.50;;
57297;SDS011;43147;50.972;18.210;2022-10-31T09:30:25;17.30;;;9.40;;
57297;SDS011;43147;50.972;18.210;2022-10-31T09:32:58;14.50;;;9.70;;
57297;SDS011;43147;50.972;18.210;2022-10-31T09:35:44;21.40;;;9.30;;
57297;SDS011;43147;50.972;18.210;2022-10-31T09:38:14;13.60;;;9.30;;
57297;SDS011;43147;50.972;18.210;2022-10-31T09:40:42;17.60;;;9.50;;
57297;SDS011;43147;50.972;18.210;2022-10-31T09:43:19;20.90;;;10.10;;
57297;SDS011;43147;50.972;18.210;2022-10-31T09:45:53;15.60;;;9.10;;
57297;SDS011;43147;50.972;18.210;2022-10-31T09:50:53;21.60;;;10.10;;
57297;SDS011;43147;50.972;18.210;2022-10-31T09:56:04;17.80;;;9.30;;
57297;SDS011;43147;50.972;18.210;2022-10-31T09:58:32;19.00;;;9.70;;
57297;SDS011;43147;50.972;18.210;2022-10-31T10:01:01;18.50;;;10.60;;
57297;SDS011;43147;50.972;18.210;2022-10-31T10:03:31;18.80;;;10.30;;
57297;SDS011;43147;50.972;18.210;2022-10-31T10:08:39;19.80;;;10.40;;
57297;SDS011;43147;50.972;18.210;2022-10-31T10:19:25;24.90;;;11.40;;
57297;SDS011;43147;50.972;18.210;2022-10-31T10:22:29;22.80;;;10.70;;
57297;SDS011;43147;50.972;18.210;2022-10-31T10:25:01;19.60;;;9.70;;
57297;SDS011;43147;50.972;18.210;2022-10-31T10:27:41;16.80;;;9.70;;
57297;SDS011;43147;50.972;18.210;2022-10-31T10:30:41;13.90;;;9.20;;
57297;SDS011;43147;50.972;18.210;2022-10-31T10:33:12;19.30;;;9.30;;
57297;SDS011;43147;50.972;18.210;2022-10-31T10:35:50;20.80;;;9.70;;
57297;SDS011;43147;50.972;18.210;2022-10-31T10:38:28;23.10;;;8.90;;
57297;SDS011;43147;50.972;18.210;2022-10-31T10:40:58;20.30;;;9.90;;
57297;SDS011;43147;50.972;18.210;2022-10-31T10:43:33;14.70;;;9.10;;
57297;SDS011;43147;50.972;18.210;2022-10-31T10:46:23;16.60;;;8.80;;
57297;SDS011;43147;50.972;18.210;2022-10-31T10:49:12;15.80;;;8.50;;
57297;SDS011;43147;50.972;18.210;2022-10-31T10:52:08;13.10;;;8.00;;
57297;SDS011;43147;50.972;18.210;2022-10-31T10:55:05;15.10;;;7.80;;
57297;SDS011;43147;50.972;18.210;2022-10-31T11:00:39;12.30;;;8.40;;
57297;SDS011;43147;50.972;18.210;2022-10-31T11:03:05;34.70;;;9.70;;
57297;SDS011;43147;50.972;18.210;2022-10-31T11:16:35;19.10;;;9.40;;
57297;SDS011;43147;50.972;18.210;2022-10-31T11:21:38;18.40;;;9.10;;
57297;SDS011;43147;50.972;18.210;2022-10-31T11:24:24;25.50;;;9.90;;
57297;SDS011;43147;50.972;18.210;2022-10-31T11:27:03;18.30;;;10.30;;
57297;SDS011;43147;50.972;18.210;2022-10-31T11:29:37;16.20;;;8.80;;
57297;SDS011;43147;50.972;18.210;2022-10-31T11:32:02;15.30;;;8.40;;
57297;SDS011;43147;50.972;18.210;2022-10-31T11:34:38;17.10;;;8.80;;
57297;SDS011;43147;50.972;18.210;2022-10-31T11:37:15;21.60;;;9.60;;
57297;SDS011;43147;50.972;18.210;2022-10-31T11:39:44;16.20;;;8.50;;
57297;SDS011;43147;50.972;18.210;2022-10-31T11:42:11;19.00;;;8.30;;
57297;SDS011;43147;50.972;18.210;2022-10-31T11:44:36;15.30;;;8.00;;
57297;SDS011;43147;50.972;18.210;2022-10-31T11:47:10;18.50;;;7.80;;
57297;SDS011;43147;50.972;18.210;2022-10-31T11:49:41;16.70;;;7.50;;
57297;SDS011;43147;50.972;18.210;2022-10-31T11:52:12;26.40;;;8.00;;
57297;SDS011;43147;50.972;18.210;2022-10-31T11:54:41;19.10;;;8.30;;
57297;SDS011;43147;50.972;18.210;2022-10-31T11:57:24;12.20;;;7.20;;
57297;SDS011;43147;50.972;18.210;2022-10-31T11:59:55;20.20;;;8.10;;
57297;SDS011;43147;50.972;18.210;2022-10-31T12:02:21;16.20;;;8.40;;
57297;SDS011;43147;50.972;18.210;2022-10-31T12:04:56;17.70;;;9.40;;
57297;SDS011;43147;50.972;18.210;2022-10-31T12:07:26;14.70;;;7.90;;
57297;SDS011;43147;50.972;18.210;2022-10-31T12:09:51;16.00;;;7.20;;
57297;SDS011;43147;50.972;18.210;2022-10-31T12:12:21;18.80;;;8.50;;
57297;SDS011;43147;50.972;18.210;2022-10-31T12:23:15;16.50;;;7.90;;
57297;SDS011;43147;50.972;18.210;2022-10-31T12:25:57;13.70;;;8.00;;
57297;SDS011;43147;50.972;18.210;2022-10-31T12:31:30;39.00;;;15.90;;
57297;SDS011;43147;50.972;18.210;2022-10-31T12:42:37;16.30;;;8.00;;
57297;SDS011;43147;50.972;18.210;2022-10-31T12:45:28;19.90;;;7.90;;
57297;SDS011;43147;50.972;18.210;2022-10-31T12:56:41;16.30;;;7.90;;
57297;SDS011;43147;50.972;18.210;2022-10-31T13:02:00;19.30;;;6.90;;
57297;SDS011;43147;50.972;18.210;2022-10-31T13:07:17;23.30;;;10.10;;
57297;SDS011;43147;50.972;18.210;2022-10-31T13:10:01;20.20;;;10.00;;
57297;SDS011;43147;50.972;18.210;2022-10-31T13:12:31;30.80;;;11.00;;
57297;SDS011;43147;50.972;18.210;2022-10-31T13:14:58;28.50;;;11.20;;
57297;SDS011;43147;50.972;18.210;2022-10-31T13:17:31;21.10;;;9.50;;
57297;SDS011;43147;50.972;18.210;2022-10-31T13:22:53;19.60;;;9.10;;
57297;SDS011;43147;50.972;18.210;2022-10-31T13:25:25;23.30;;;9.70;;
57297;SDS011;43147;50.972;18.210;2022-10-31T13:28:01;22.30;;;9.40;;
57297;SDS011;43147;50.972;18.210;2022-10-31T13:30:29;30.50;;;10.20;;
57297;SDS011;43147;50.972;18.210;2022-10-31T13:33:13;22.10;;;9.70;;
57297;SDS011;43147;50.972;18.210;2022-10-31T13:38:23;16.00;;;8.10;;
57297;SDS011;43147;50.972;18.210;2022-10-31T13:41:00;18.50;;;8.00;;
57297;SDS011;43147;50.972;18.210;2022-10-31T13:46:24;24.00;;;7.70;;
57297;SDS011;43147;50.972;18.210;2022-10-31T13:52:06;19.20;;;7.40;;
57297;SDS011;43147;50.972;18.210;2022-10-31T13:54:37;20.80;;;7.80;;
57297;SDS011;43147;50.972;18.210;2022-10-31T13:59:48;15.70;;;6.50;;
57297;SDS011;43147;50.972;18.210;2022-10-31T14:02:16;18.00;;;8.80;;
57297;SDS011;43147;50.972;18.210;2022-10-31T14:04:51;22.20;;;8.20;;
57297;SDS011;43147;50.972;18.210;2022-10-31T14:07:20;22.80;;;11.10;;
57297;SDS011;43147;50.972;18.210;2022-10-31T14:14:56;25.60;;;9.60;;
57297;SDS011;43147;50.972;18.210;2022-10-31T14:17:25;24.00;;;8.60;;
57297;SDS011;43147;50.972;18.210;2022-10-31T14:19:59;21.10;;;10.00;;
57297;SDS011;43147;50.972;18.210;2022-10-31T14:22:30;22.00;;;9.50;;
57297;SDS011;43147;50.972;18.210;2022-10-31T14:24:56;22.20;;;10.90;;
57297;SDS011;43147;50.972;18.210;2022-10-31T14:29:53;25.60;;;9.90;;
57297;SDS011;43147;50.972;18.210;2022-10-31T14:32:22;20.30;;;10.10;;
57297;SDS011;43147;50.972;18.210;2022-10-31T14:48:38;23.80;;;8.60;;
57297;SDS011;43147;50.972;18.210;2022-10-31T14:51:18;21.70;;;10.20;;
57297;SDS011;43147;50.972;18.210;2022-10-31T14:53:46;26.20;;;9.90;;
57297;SDS011;43147;50.972;18.210;2022-10-31T14:56:16;49.40;;;18.40;;
57297;SDS011;43147;50.972;18.210;2022-10-31T14:58:45;39.50;;;16.10;;
57297;SDS011;43147;50.972;18.210;2022-10-31T15:01:17;22.40;;;11.30;;
57297;SDS011;43147;50.972;18.210;2022-10-31T15:03:47;44.30;;;14.60;;
57297;SDS011;43147;50.972;18.210;2022-10-31T15:06:13;35.80;;;14.10;;
57297;SDS011;43147;50.972;18.210;2022-10-31T15:08:44;31.50;;;15.20;;
57297;SDS011;43147;50.972;18.210;2022-10-31T15:13:41;60.00;;;29.80;;
57297;SDS011;43147;50.972;18.210;2022-10-31T15:16:15;53.20;;;26.70;;
57297;SDS011;43147;50.972;18.210;2022-10-31T15:18:54;34.50;;;14.40;;
57297;SDS011;43147;50.972;18.210;2022-10-31T15:21:22;29.00;;;13.20;;
57297;SDS011;43147;50.972;18.210;2022-10-31T15:23:49;29.40;;;12.40;;
57297;SDS011;43147;50.972;18.210;2022-10-31T15:26:18;44.00;;;13.00;;
57297;SDS011;43147;50.972;18.210;2022-10-31T15:28:45;29.80;;;12.60;;
57297;SDS011;43147;50.972;18.210;2022-10-31T15:31:16;29.00;;;10.10;;
57297;SDS011;43147;50.972;18.210;2022-10-31T15:33:42;28.10;;;11.70;;
57297;SDS011;43147;50.972;18.210;2022-10-31T15:36:17;26.90;;;10.90;;
57297;SDS011;43147;50.972;18.210;2022-10-31T15:38:48;23.40;;;10.00;;
57297;SDS011;43147;50.972;18.210;2022-10-31T15:44:41;36.70;;;19.30;;
57297;SDS011;43147;50.972;18.210;2022-10-31T15:47:02;22.60;;;11.80;;
57297;SDS011;43147;50.972;18.210;2022-10-31T15:49:42;50.40;;;12.40;;
57297;SDS011;43147;50.972;18.210;2022-10-31T15:52:17;58.80;;;12.60;;
57297;SDS011;43147;50.972;18.210;2022-10-31T15:54:44;27.80;;;12.00;;
57297;SDS011;43147;50.972;18.210;2022-10-31T15:57:14;49.30;;;13.70;;
57297;SDS011;43147;50.972;18.210;2022-10-31T15:59:41;36.20;;;13.00;;
57297;SDS011;43147;50.972;18.210;2022-10-31T16:02:14;22.60;;;12.10;;
57297;SDS011;43147;50.972;18.210;2022-10-31T16:04:56;32.20;;;12.10;;
57297;SDS011;43147;50.972;18.210;2022-10-31T16:07:23;45.20;;;14.20;;
57297;SDS011;43147;50.972;18.210;2022-10-31T16:09:54;27.00;;;13.70;;
57297;SDS011;43147;50.972;18.210;2022-10-31T16:12:20;37.70;;;12.90;;
57297;SDS011;43147;50.972;18.210;2022-10-31T16:14:46;32.20;;;14.40;;
57297;SDS011;43147;50.972;18.210;2022-10-31T16:17:15;25.00;;;12.90;;
57297;SDS011;43147;50.972;18.210;2022-10-31T16:22:32;32.40;;;14.50;;
57297;SDS011;43147;50.972;18.210;2022-10-31T16:25:42;23.10;;;15.00;;
57297;SDS011;43147;50.972;18.210;2022-10-31T16:27:51;30.10;;;14.40;;
57297;SDS011;43147;50.972;18.210;2022-10-31T16:33:19;45.50;;;24.90;;
57297;SDS011;43147;50.972;18.210;2022-10-31T16:35:45;37.90;;;18.20;;
57297;SDS011;43147;50.972;18.210;2022-10-31T16:38:11;33.30;;;16.70;;
57297;SDS011;43147;50.972;18.210;2022-10-31T16:40:38;46.80;;;16.70;;
57297;SDS011;43147;50.972;18.210;2022-10-31T16:43:04;31.10;;;14.90;;
57297;SDS011;43147;50.972;18.210;2022-10-31T16:45:31;40.70;;;17.00;;
57297;SDS011;43147;50.972;18.210;2022-10-31T16:48:05;36.00;;;19.00;;